Terminal Aerodrome Forecast
Issued by NWS

Home | Current Version | Previous Version | Text Only | Print | Product List | Glossary On
Versions: 1 2 3 4 5 6 7 8 9 10 11 12 13 14 15 16 17 18 19 20 21 22 23 24 25
000
FTUS41 KOKX 010800 AAA
TAFGON
TAF AMD
KGON 010844Z 0109/0206 04015G25KT P6SM OVC035
      TEMPO 0110/0114 5SM -RA BR
     FM011400 02020G30KT 3SM RA BR OVC010
     FM011800 02025G35KT 4SM RA BR OVC012
     FM012300 01026G37KT 5SM -RA BR OVC015=

USA.gov is the U.S. government's official web portal to all federal, state and local government web resources and services.